Time;durP1;ratioP1;P1;durP2;ratioP2;P2;SDS_P1;SDS_P2;PMS_P1;PMS_P2;Temp;Humidity;BMP_temperature;BMP_pressure;BME280_temperature;BME280_humidity;BME280_pressure;Samples;Min_cycle;Max_cycle;Signal;HPM_P1;HPM_P2
2022/08/31 00:03:54;;;;;;;3.97;2.70;;;;;;;16.77;71.14;101888.69;6186404;23;20331;-87
2022/08/31 00:06:20;;;;;;;3.88;2.30;;;;;;;16.74;71.10;101889.16;6164082;23;20013;-87
2022/08/31 00:08:46;;;;;;;3.38;2.30;;;;;;;16.66;71.37;101882.06;6185389;23;20009;-87
2022/08/31 00:11:13;;;;;;;4.63;2.40;;;;;;;16.70;71.46;101881.59;6160816;23;20059;-87
2022/08/31 00:13:43;;;;;;;5.40;2.75;;;;;;;16.64;71.78;101888.84;6185580;23;20061;-87
2022/08/31 00:16:10;;;;;;;2.70;2.25;;;;;;;16.67;71.99;101888.41;6185535;23;20009;-87
2022/08/31 00:18:35;;;;;;;4.30;2.35;;;;;;;16.62;71.99;101880.00;6186339;23;20005;-87
2022/08/31 00:21:03;;;;;;;4.23;2.70;;;;;;;16.60;72.41;101879.41;6185830;23;20012;-87
2022/08/31 00:23:31;;;;;;;4.93;2.70;;;;;;;16.53;72.60;101871.28;6186554;23;20056;-87
2022/08/31 00:25:56;;;;;;;3.33;2.50;;;;;;;16.53;72.72;101878.66;6185947;23;20009;-87
2022/08/31 00:28:24;;;;;;;3.83;2.40;;;;;;;16.52;72.72;101872.34;6185709;23;20012;-87
2022/08/31 00:31:00;;;;;;;5.93;2.63;;;;;;;16.52;72.73;101875.09;6160248;23;20439;-87
2022/08/31 00:33:29;;;;;;;3.63;2.47;;;;;;;16.48;73.20;101888.41;6161089;23;20005;-87
2022/08/31 00:35:54;;;;;;;5.28;2.60;;;;;;;16.46;73.50;101879.59;6186096;23;20005;-86
2022/08/31 00:38:20;;;;;;;3.73;2.53;;;;;;;16.47;73.28;101881.25;6185279;23;20036;-87
2022/08/31 00:40:46;;;;;;;6.23;2.60;;;;;;;16.46;73.28;101882.31;6185225;23;20017;-87
2022/08/31 00:43:39;;;;;;;4.50;2.47;;;;;;;16.55;72.12;101887.47;6185123;23;20012;-87
2022/08/31 00:46:06;;;;;;;5.03;2.50;;;;;;;16.54;73.35;101885.81;6187573;23;20005;-87
2022/08/31 00:48:32;;;;;;;8.63;2.80;;;;;;;16.51;73.63;101878.06;6185255;23;20005;-87
2022/08/31 00:50:58;;;;;;;4.32;2.40;;;;;;;16.48;73.64;101888.41;6185231;23;20342;-87
2022/08/31 00:53:24;;;;;;;3.77;2.40;;;;;;;16.44;73.86;101876.22;6185366;23;20013;-87
2022/08/31 00:55:50;;;;;;;4.10;2.40;;;;;;;16.44;73.79;101873.50;6185174;23;20013;-87
2022/08/31 00:58:16;;;;;;;5.13;2.60;;;;;;;16.44;73.53;101873.50;6186818;23;20083;-87
2022/08/31 01:00:43;;;;;;;2.97;2.40;;;;;;;16.47;73.94;101881.25;6185116;23;20012;-87
2022/08/31 01:03:09;;;;;;;5.50;2.63;;;;;;;16.44;74.05;101883.63;6185310;23;20407;-87
2022/08/31 01:05:36;;;;;;;2.83;2.50;;;;;;;16.46;74.18;101881.47;6186402;23;20012;-87
2022/08/31 01:08:03;;;;;;;6.05;2.47;;;;;;;16.46;74.16;101896.03;6185396;23;20019;-87
2022/08/31 01:10:33;;;;;;;3.42;2.45;;;;;;;16.36;74.19;101876.56;6184959;23;20012;-87
2022/08/31 01:13:00;;;;;;;7.75;2.83;;;;;;;16.36;74.46;101875.69;6186919;23;20415;-87
2022/08/31 01:15:27;;;;;;;8.07;2.40;;;;;;;16.30;74.72;101870.09;6186688;23;20012;-87
2022/08/31 01:17:54;;;;;;;4.63;2.30;;;;;;;16.30;74.70;101883.78;6185077;23;20009;-87
2022/08/31 01:20:23;;;;;;;3.60;2.83;;;;;;;16.29;74.56;101875.78;6184656;23;20016;-87
2022/08/31 01:22:57;;;;;;;3.45;2.30;;;;;;;16.28;74.17;101885.91;6184860;23;20016;-88
2022/08/31 01:25:23;;;;;;;3.00;2.38;;;;;;;16.25;75.09;101871.84;6186160;23;20005;-87
2022/08/31 01:27:49;;;;;;;4.00;2.50;;;;;;;16.23;75.37;101873.97;6186160;23;20009;-87
2022/08/31 01:30:22;;;;;;;5.38;2.83;;;;;;;16.19;75.03;101876.31;6184927;23;20019;-86
2022/08/31 01:32:47;;;;;;;3.08;2.40;;;;;;;16.17;75.17;101874.88;6185241;23;20324;-87
2022/08/31 01:35:13;;;;;;;7.47;2.33;;;;;;;16.14;75.41;101874.25;6185008;23;20087;-86
2022/08/31 01:37:39;;;;;;;6.95;2.40;;;;;;;16.11;75.43;101873.91;6184844;23;20013;-87
2022/08/31 01:40:05;;;;;;;3.07;2.13;;;;;;;16.13;75.74;101878.06;6187167;23;20013;-87
2022/08/31 01:42:31;;;;;;;11.75;2.40;;;;;;;16.12;75.72;101883.75;6185841;23;20390;-87
2022/08/31 01:44:57;;;;;;;4.32;2.28;;;;;;;16.06;75.87;101877.31;6110896;23;20039;-87
2022/08/31 01:47:22;;;;;;;4.37;2.17;;;;;;;15.99;75.94;101872.97;6186611;23;20411;-86
2022/08/31 01:49:47;;;;;;;2.30;2.10;;;;;;;16.04;76.25;101884.06;6159721;23;20016;-87
2022/08/31 01:52:13;;;;;;;7.97;2.40;;;;;;;16.00;75.82;101883.69;6135737;23;20384;-87
2022/08/31 01:54:38;;;;;;;8.40;2.60;;;;;;;15.96;76.20;101886.03;6159584;23;20076;-87
2022/08/31 01:57:04;;;;;;;5.20;2.30;;;;;;;15.90;76.25;101876.00;6159921;23;20005;-86
2022/08/31 01:59:29;;;;;;;2.97;2.20;;;;;;;15.89;77.14;101879.78;6159520;23;20013;-86
2022/08/31 02:01:55;;;;;;;4.32;2.55;;;;;;;15.88;77.00;101882.75;6160730;23;20012;-87
2022/08/31 02:04:23;;;;;;;3.33;2.00;;;;;;;15.88;77.75;101874.56;6185919;23;20024;-87
2022/08/31 02:06:51;;;;;;;3.47;2.38;;;;;;;15.85;77.48;101885.94;6160557;23;20012;-87
2022/08/31 02:09:19;;;;;;;4.25;2.20;;;;;;;15.85;77.62;101888.69;6159768;23;20431;-87
2022/08/31 02:11:49;;;;;;;5.40;2.60;;;;;;;15.85;77.78;101888.69;6160093;23;20032;-87
2022/08/31 02:14:17;;;;;;;3.03;2.30;;;;;;;15.83;77.84;101894.38;6159883;23;20005;-87
2022/08/31 02:16:44;;;;;;;2.47;2.20;;;;;;;15.85;77.30;101892.25;6159758;23;20005;-85
2022/08/31 02:19:09;;;;;;;2.60;2.30;;;;;;;15.76;77.35;101882.63;6185763;23;20363;-88
2022/08/31 02:21:35;;;;;;;3.50;2.30;;;;;;;15.73;77.30;101883.91;6159418;23;20020;-87
2022/08/31 02:24:01;;;;;;;6.07;2.30;;;;;;;15.71;77.47;101886.03;6159756;23;20009;-87
2022/08/31 02:26:27;;;;;;;3.72;2.40;;;;;;;15.76;77.62;101897.13;6186151;23;20015;-87
2022/08/31 02:28:52;;;;;;;2.90;2.47;;;;;;;15.73;77.84;101894.84;6159798;23;20040;-86
2022/08/31 02:31:18;;;;;;;3.57;2.67;;;;;;;15.68;77.14;101888.38;6160026;23;20005;-87
2022/08/31 02:33:43;;;;;;;10.47;2.50;;;;;;;15.67;77.77;101887.56;6160583;23;20259;-87
2022/08/31 02:36:10;;;;;;;3.33;2.50;;;;;;;15.69;77.72;101903.75;6159547;23;20073;-87
2022/08/31 02:38:36;;;;;;;4.25;2.38;;;;;;;15.67;77.94;101901.22;6159343;23;20096;-87
2022/08/31 02:41:02;;;;;;;4.05;2.60;;;;;;;15.60;78.48;101887.63;6160347;23;20037;-88
2022/08/31 02:43:27;;;;;;;4.82;2.58;;;;;;;15.58;77.92;101892.47;6186762;23;20407;-86
2022/08/31 02:45:53;;;;;;;3.03;2.13;;;;;;;15.57;78.45;101901.72;6161813;23;20009;-87
2022/08/31 02:48:19;;;;;;;8.60;2.10;;;;;;;15.59;78.57;101901.53;6138038;23;20012;-87
2022/08/31 02:50:48;;;;;;;3.35;2.10;;;;;;;15.56;78.61;101896.47;6161619;23;20017;-87
2022/08/31 02:53:15;;;;;;;4.45;2.47;;;;;;;15.50;78.75;101890.03;6161515;23;20366;-87
2022/08/31 02:55:41;;;;;;;2.67;2.20;;;;;;;15.52;78.64;101898.84;6187604;23;20005;-87
2022/08/31 02:58:08;;;;;;;4.68;2.60;;;;;;;15.42;78.93;101884.81;6187950;23;20012;-87
2022/08/31 03:00:34;;;;;;;3.67;2.40;;;;;;;15.40;79.13;101881.47;6161805;23;20009;-87
2022/08/31 03:03:00;;;;;;;4.18;2.80;;;;;;;15.43;79.15;101892.81;6162388;23;20368;-87
2022/08/31 03:05:26;;;;;;;4.67;2.70;;;;;;;15.37;79.42;101890.97;6161094;23;20391;-87
2022/08/31 03:07:51;;;;;;;4.15;2.40;;;;;;;15.34;79.40;101893.28;6161417;23;20052;-87
2022/08/31 03:10:20;;;;;;;4.87;2.80;;;;;;;15.32;80.25;101895.41;6187706;23;20005;-87
2022/08/31 03:12:49;;;;;;;3.05;2.40;;;;;;;15.24;79.76;101882.84;6161530;23;20009;-87
2022/08/31 03:15:17;;;;;;;2.97;2.38;;;;;;;15.27;80.07;101885.16;6187751;23;20391;-87
2022/08/31 03:17:43;;;;;;;2.40;2.13;;;;;;;15.22;79.97;101888.53;6187859;23;20013;-87
2022/08/31 03:20:12;;;;;;;2.67;2.30;;;;;;;15.19;80.05;101886.25;6161587;23;20020;-87
2022/08/31 03:22:40;;;;;;;12.48;2.67;;;;;;;15.12;80.37;101881.88;6161162;23;20009;-87
2022/08/31 03:25:10;;;;;;;5.10;2.50;;;;;;;15.14;80.09;101887.97;6161541;23;20079;-87
2022/08/31 03:27:37;;;;;;;4.75;2.30;;;;;;;15.11;80.43;101893.88;6187162;23;20005;-87
2022/08/31 03:30:10;;;;;;;9.07;2.67;;;;;;;15.11;79.73;101904.81;6161120;23;20005;-87
2022/08/31 03:32:35;;;;;;;4.13;2.40;;;;;;;15.05;80.04;101895.59;6187937;23;20005;-86
2022/08/31 03:35:02;;;;;;;4.10;2.70;;;;;;;15.07;80.58;101898.94;6161291;23;20297;-87
2022/08/31 03:37:28;;;;;;;4.13;2.07;;;;;;;15.07;80.53;101901.66;6136521;23;20013;-87
2022/08/31 03:39:54;;;;;;;2.42;2.10;;;;;;;15.06;80.90;101906.31;6161143;23;20017;-87
2022/08/31 03:42:19;;;;;;;5.83;2.50;;;;;;;14.98;81.25;101898.34;6160891;23;20427;-87
2022/08/31 03:44:46;;;;;;;2.90;2.60;;;;;;;14.98;80.56;101900.25;6160808;23;20036;-87
2022/08/31 03:47:12;;;;;;;3.72;2.50;;;;;;;14.93;80.54;101894.63;6162026;23;20016;-87
2022/08/31 03:49:38;;;;;;;4.85;2.42;;;;;;;14.97;80.34;101902.16;6160954;23;20095;-87
2022/08/31 03:52:03;;;;;;;2.57;2.37;;;;;;;14.97;80.22;101906.78;6162058;23;20084;-87
2022/08/31 03:54:29;;;;;;;5.87;2.50;;;;;;;14.96;80.33;101905.94;6186698;23;20549;-87
2022/08/31 03:56:55;;;;;;;2.80;2.25;;;;;;;14.91;80.43;101892.09;6160670;23;20009;-87
2022/08/31 03:59:20;;;;;;;5.60;2.27;;;;;;;14.94;79.66;101897.13;6186908;23;20080;-87
2022/08/31 04:01:45;;;;;;;7.15;2.22;;;;;;;14.99;79.51;101907.41;6135341;23;20071;-87
2022/08/31 04:04:12;;;;;;;3.10;2.30;;;;;;;14.96;79.48;101897.75;6187313;23;20021;-87
2022/08/31 04:06:43;;;;;;;4.70;2.42;;;;;;;15.00;78.96;101892.66;6187286;23;20013;-87
2022/08/31 04:09:08;;;;;;;2.47;2.27;;;;;;;15.09;78.70;101903.13;6161008;23;20032;-91
2022/08/31 04:11:34;;;;;;;4.07;2.35;;;;;;;15.07;78.40;101898.94;6111487;23;20013;-87
2022/08/31 04:13:59;;;;;;;3.47;2.40;;;;;;;15.11;78.40;101900.19;6136973;23;20088;-88
2022/08/31 04:16:25;;;;;;;3.30;2.17;;;;;;;15.05;77.94;101896.41;6160778;23;20438;-87
2022/08/31 04:18:51;;;;;;;5.38;2.40;;;;;;;15.06;78.28;101900.84;6186695;23;20400;-87
2022/08/31 04:21:24;;;;;;;2.53;2.20;;;;;;;15.05;77.94;101901.88;6160508;23;20036;-87
2022/08/31 04:23:52;;;;;;;5.05;2.13;;;;;;;15.04;78.04;101907.56;6160477;23;20491;-87
2022/08/31 04:26:21;;;;;;;2.58;2.20;;;;;;;14.98;77.65;101908.47;6186629;23;20009;-87
2022/08/31 04:28:47;;;;;;;2.55;2.08;;;;;;;14.91;77.81;101903.88;6187010;23;20009;-87
2022/08/31 04:31:14;;;;;;;4.78;2.20;;;;;;;14.89;78.22;101916.06;6160394;23;20096;-87
2022/08/31 04:33:40;;;;;;;3.80;2.17;;;;;;;14.74;78.07;101905.44;6159999;23;20005;-87
2022/08/31 04:36:14;;;;;;;4.13;2.22;;;;;;;14.75;77.62;101912.56;6186500;23;20031;-87
2022/08/31 04:38:44;;;;;;;8.38;2.40;;;;;;;14.66;77.99;101900.19;6159680;23;20017;-87
2022/08/31 04:41:12;;;;;;;3.53;2.13;;;;;;;14.64;77.59;101907.78;6160738;23;20104;-87
2022/08/31 04:43:49;;;;;;;4.18;2.40;;;;;;;14.61;77.64;101913.66;6160372;23;20332;-88
2022/08/31 04:46:16;;;;;;;2.23;1.90;;;;;;;14.61;77.57;101909.06;6160818;23;20005;-87
2022/08/31 04:48:45;;;;;;;5.80;2.22;;;;;;;14.53;77.59;101909.28;6159861;23;20019;-87
2022/08/31 04:51:21;;;;;;;2.60;2.17;;;;;;;14.54;77.56;101917.25;6160962;23;20495;-87
2022/08/31 04:53:47;;;;;;;4.30;1.98;;;;;;;14.48;77.82;101915.38;6160705;23;20009;-88
2022/08/31 04:56:15;;;;;;;3.60;1.80;;;;;;;14.48;77.86;101923.59;6186366;23;20016;-88
2022/08/31 04:58:46;;;;;;;12.52;2.38;;;;;;;14.44;78.09;101925.06;6160523;23;20007;-87
2022/08/31 05:01:14;;;;;;;3.50;2.28;;;;;;;14.47;78.22;101938.28;6186668;23;20063;-88
2022/08/31 05:03:40;;;;;;;4.90;2.33;;;;;;;14.45;78.47;101931.34;6160163;23;20040;-87
2022/08/31 05:06:10;;;;;;;5.90;2.00;;;;;;;14.40;77.99;101923.81;6160073;23;20001;-88
2022/08/31 05:08:36;;;;;;;3.47;2.42;;;;;;;14.34;78.20;101916.47;6186361;23;20001;-88
2022/08/31 05:11:10;;;;;;;4.90;2.10;;;;;;;14.32;77.66;101922.16;6159687;23;20334;-87
2022/08/31 05:13:36;;;;;;;7.43;2.33;;;;;;;14.30;77.51;101921.50;6160418;23;20091;-87
2022/08/31 05:16:08;;;;;;;2.85;2.10;;;;;;;14.36;77.73;101936.19;6160444;23;20419;-89
2022/08/31 05:18:44;;;;;;;2.53;1.80;;;;;;;14.29;77.79;101928.03;6160490;23;20009;-90
2022/08/31 05:21:27;;;;;;;4.25;2.20;;;;;;;14.34;77.45;101930.13;6159928;23;20001;-88
2022/08/31 05:23:54;;;;;;;4.78;2.30;;;;;;;14.36;77.12;101937.06;6159873;23;20083;-86
2022/08/31 05:26:24;;;;;;;4.53;1.97;;;;;;;14.36;76.97;101936.19;6160307;23;20088;-86
2022/08/31 05:28:52;;;;;;;2.72;1.77;;;;;;;14.38;76.75;101934.13;6159976;23;20015;-86
2022/08/31 05:31:20;;;;;;;3.42;1.98;;;;;;;14.39;76.46;101941.22;6186021;23;20009;-86
2022/08/31 05:33:46;;;;;;;3.47;1.90;;;;;;;14.37;75.79;101930.53;6159879;23;20009;-86
2022/08/31 05:36:12;;;;;;;7.10;2.03;;;;;;;14.46;76.11;101935.75;6187005;23;20008;-86
2022/08/31 05:38:38;;;;;;;4.68;1.75;;;;;;;14.47;75.47;101927.34;6186178;23;20016;-86
2022/08/31 05:41:06;;;;;;;3.10;1.60;;;;;;;14.51;75.30;101934.06;6159660;23;20029;-86
2022/08/31 05:43:32;;;;;;;7.05;1.70;;;;;;;14.55;74.69;101931.72;6160002;23;20415;-86
2022/08/31 05:45:58;;;;;;;5.43;1.80;;;;;;;14.55;74.51;101937.19;6186452;23;20009;-86
2022/08/31 05:48:32;;;;;;;2.80;1.65;;;;;;;14.57;74.12;101935.06;6159951;23;20018;-85
2022/08/31 05:51:00;;;;;;;5.80;1.70;;;;;;;14.63;73.79;101942.47;6161113;23;20013;-86
2022/08/31 05:53:26;;;;;;;3.70;1.70;;;;;;;14.66;73.38;101941.16;6159777;23;20012;-86
2022/08/31 05:56:06;;;;;;;3.60;1.97;;;;;;;14.70;72.95;101943.28;6160111;23;20013;-86
2022/08/31 05:58:33;;;;;;;4.60;1.52;;;;;;;14.74;72.69;101943.66;6159988;23;20009;-86
2022/08/31 06:01:01;;;;;;;2.70;1.65;;;;;;;14.76;72.15;101946.19;6159658;23;20210;-86
2022/08/31 06:03:28;;;;;;;2.90;1.43;;;;;;;14.80;72.35;101952.91;6159409;23;20009;-86
2022/08/31 06:06:07;;;;;;;3.15;1.50;;;;;;;14.85;71.91;101955.81;6186141;23;20012;-88
2022/08/31 06:08:34;;;;;;;2.28;1.50;;;;;;;14.91;71.34;101954.94;6161181;23;20020;-86
2022/08/31 06:10:59;;;;;;;4.00;1.45;;;;;;;14.97;71.41;101961.44;6185991;23;20012;-86
2022/08/31 06:13:25;;;;;;;2.93;1.50;;;;;;;14.97;71.32;101956.81;6135052;23;20009;-85
2022/08/31 06:15:51;;;;;;;1.93;1.33;;;;;;;15.05;70.59;101962.00;6160691;23;20009;-85
2022/08/31 06:18:28;;;;;;;4.65;1.75;;;;;;;15.07;70.72;101950.88;6186104;23;20051;-88
2022/08/31 06:21:07;;;;;;;5.18;1.80;;;;;;;15.12;70.15;101948.31;6162179;23;20036;-85
2022/08/31 06:23:37;;;;;;;4.57;1.52;;;;;;;15.22;69.75;101953.31;6138866;23;20060;-86
2022/08/31 06:26:05;;;;;;;4.85;1.52;;;;;;;15.34;69.69;101946.09;6137973;23;20427;-86
2022/08/31 06:28:59;;;;;;;5.43;1.60;;;;;;;15.54;68.69;101967.81;6161511;23;20013;-87
2022/08/31 06:31:45;;;;;;;3.15;1.30;;;;;;;15.79;67.66;101958.81;6140367;23;20016;-87
2022/08/31 06:34:20;;;;;;;2.58;1.42;;;;;;;16.00;67.22;101971.25;6161746;23;20024;-87
2022/08/31 06:36:48;;;;;;;3.35;1.67;;;;;;;16.07;66.80;101963.84;6161807;23;20009;-85
2022/08/31 06:39:17;;;;;;;7.05;1.70;;;;;;;16.18;65.80;101972.38;6148229;23;20103;-86
2022/08/31 06:41:42;;;;;;;4.10;1.30;;;;;;;16.24;65.45;101972.31;6162160;23;20424;-85
2022/08/31 06:44:11;;;;;;;2.58;1.63;;;;;;;16.29;65.55;101977.94;6186270;23;20013;-85
2022/08/31 06:46:38;;;;;;;2.60;1.70;;;;;;;16.26;65.30;101972.09;6187886;23;20052;-86
2022/08/31 06:49:04;;;;;;;3.65;1.55;;;;;;;16.26;65.41;101970.19;6185995;23;20024;-86
2022/08/31 06:51:35;;;;;;;3.72;1.80;;;;;;;16.28;65.18;101978.16;6186172;23;20092;-85
2022/08/31 06:54:02;;;;;;;2.88;1.50;;;;;;;16.29;64.86;101977.94;6186176;23;20009;-85
2022/08/31 06:56:27;;;;;;;4.55;1.58;;;;;;;16.31;64.31;101974.97;6187228;23;20084;-85
2022/08/31 06:58:53;;;;;;;3.97;1.50;;;;;;;16.41;63.95;101982.69;6185958;23;20099;-85
2022/08/31 07:01:27;;;;;;;4.33;1.77;;;;;;;16.49;64.48;101979.66;6187644;23;20027;-85
2022/08/31 07:03:58;;;;;;;4.00;1.60;;;;;;;16.54;63.81;101982.53;6186333;23;20263;-87
2022/08/31 07:06:31;;;;;;;5.38;1.77;;;;;;;16.61;63.58;101975.09;6186787;23;20005;-84
2022/08/31 07:09:00;;;;;;;4.72;1.80;;;;;;;16.74;63.00;101985.06;6186508;23;20009;-84
2022/08/31 07:11:32;;;;;;;2.58;1.50;;;;;;;16.79;62.66;101985.19;6187617;23;20005;-84
2022/08/31 07:13:57;;;;;;;4.18;1.88;;;;;;;16.80;62.03;101995.09;6187522;23;20039;-84
2022/08/31 07:16:25;;;;;;;2.90;1.40;;;;;;;16.73;62.14;101980.63;6185702;23;20012;-85
2022/08/31 07:18:53;;;;;;;2.85;1.55;;;;;;;16.77;62.19;101981.84;6185855;23;20005;-84
2022/08/31 07:21:21;;;;;;;3.40;1.40;;;;;;;16.87;61.45;101992.28;6187516;23;20013;-84
2022/08/31 07:23:50;;;;;;;4.03;1.50;;;;;;;16.86;61.39;101987.88;6185587;23;20419;-85
2022/08/31 07:26:21;;;;;;;8.25;1.52;;;;;;;16.88;61.49;101984.94;6187567;23;20032;-84
2022/08/31 07:28:52;;;;;;;3.50;1.60;;;;;;;16.89;60.50;101983.84;6187546;23;20016;-84
2022/08/31 07:31:21;;;;;;;2.20;1.55;;;;;;;16.93;61.02;101980.44;6187886;23;20005;-84
2022/08/31 07:33:48;;;;;;;3.83;1.37;;;;;;;16.96;61.03;101979.97;6186209;23;20005;-84
2022/08/31 07:36:15;;;;;;;4.05;1.50;;;;;;;16.98;60.88;101990.69;6187487;23;20017;-85
2022/08/31 07:42:08;;;;;;;4.68;1.65;;;;;;;17.14;60.47;101991.94;6187945;23;20016;-85
2022/08/31 07:44:22;;;;;;;5.05;1.60;;;;;;;17.15;60.67;101979.91;6187178;23;20095;-84
2022/08/31 07:46:53;;;;;;;4.33;1.30;;;;;;;17.24;60.13;101985.91;6160714;23;20005;-85
2022/08/31 07:49:19;;;;;;;4.95;1.63;;;;;;;17.25;59.97;101993.91;6187472;23;20040;-84
2022/08/31 07:51:50;;;;;;;4.35;1.58;;;;;;;17.25;60.41;101985.69;6185073;23;20012;-84
2022/08/31 07:54:26;;;;;;;7.85;2.03;;;;;;;17.28;60.45;101984.38;6185266;23;20013;-84
2022/08/31 07:56:52;;;;;;;6.40;1.70;;;;;;;17.30;60.23;101976.75;6185671;23;20025;-84
2022/08/31 07:59:20;;;;;;;3.67;1.87;;;;;;;17.34;60.71;101980.72;6185468;23;20427;-84
2022/08/31 08:01:54;;;;;;;3.15;1.60;;;;;;;17.43;60.46;101989.44;6187023;23;20001;-84
2022/08/31 08:04:25;;;;;;;4.65;1.63;;;;;;;17.47;60.18;101987.91;6184760;23;20012;-84
2022/08/31 08:06:55;;;;;;;5.43;1.80;;;;;;;17.55;60.13;101982.06;6185420;23;20001;-84
2022/08/31 08:09:22;;;;;;;2.03;1.60;;;;;;;17.66;59.66;101994.16;6186040;23;20005;-84
2022/08/31 08:11:58;;;;;;;3.57;2.00;;;;;;;17.68;59.83;101987.34;6184847;23;20015;-86
2022/08/31 08:14:32;;;;;;;2.50;2.03;;;;;;;17.77;59.63;101985.09;6139620;23;20068;-89
2022/08/31 08:17:01;;;;;;;3.90;2.00;;;;;;;17.81;60.05;101994.53;6185452;23;20005;-87
2022/08/31 08:19:26;;;;;;;4.57;2.08;;;;;;;17.91;60.22;101995.91;6185095;23;20100;-86
2022/08/31 08:21:52;;;;;;;3.73;2.33;;;;;;;17.93;59.96;102002.00;6160411;23;20139;-87
2022/08/31 08:24:17;;;;;;;2.77;2.03;;;;;;;18.03;59.34;102008.56;6184912;23;20061;-87
2022/08/31 08:26:54;;;;;;;4.82;1.88;;;;;;;18.22;59.01;102016.72;6186127;23;20013;-86
2022/08/31 08:29:20;;;;;;;5.50;1.90;;;;;;;18.38;58.18;102007.75;6185834;23;20047;-86
2022/08/31 08:31:51;;;;;;;3.43;2.00;;;;;;;18.67;57.39;102012.50;6185547;23;20076;-87
2022/08/31 08:34:21;;;;;;;4.00;2.05;;;;;;;19.08;56.97;102016.13;6161053;23;20009;-87
2022/08/31 08:36:47;;;;;;;2.92;2.03;;;;;;;19.36;55.95;102015.31;6186733;23;20059;-87
2022/08/31 08:39:18;;;;;;;6.80;2.22;;;;;;;19.77;55.53;102016.03;6186133;23;20021;-86
2022/08/31 08:41:46;;;;;;;4.80;2.38;;;;;;;20.07;54.91;102017.66;6184786;23;20009;-86
2022/08/31 08:44:17;;;;;;;4.17;1.90;;;;;;;20.32;54.18;102030.19;6184814;23;20016;-86
2022/08/31 08:47:04;;;;;;;4.32;2.00;;;;;;;20.60;54.34;102020.09;6184998;23;20005;-86
2022/08/31 08:49:48;;;;;;;7.43;2.20;;;;;;;20.76;53.23;102016.50;6185985;23;20017;-86
2022/08/31 08:52:18;;;;;;;4.40;2.10;;;;;;;20.71;52.75;102012.81;6184496;23;20009;-86
2022/08/31 08:54:46;;;;;;;3.90;2.30;;;;;;;20.64;52.96;102013.00;6184279;23;20016;-86
2022/08/31 08:57:23;;;;;;;2.77;2.20;;;;;;;20.45;52.99;102009.69;6184967;23;20342;-86
2022/08/31 08:59:52;;;;;;;6.13;2.20;;;;;;;20.33;53.14;102007.06;6186162;23;20435;-86
2022/08/31 09:02:22;;;;;;;3.47;2.35;;;;;;;20.32;53.30;102017.22;6185856;23;20036;-86
2022/08/31 09:05:12;;;;;;;3.78;2.50;;;;;;;20.33;53.78;102004.28;6186319;23;20080;-86
2022/08/31 09:07:43;;;;;;;5.63;2.30;;;;;;;20.37;53.86;102010.94;6186529;23;20111;-86
2022/08/31 09:10:13;;;;;;;4.33;2.47;;;;;;;20.34;54.23;102005.94;6184503;23;20016;-89
2022/08/31 09:13:20;;;;;;;5.47;2.65;;;;;;;20.40;53.66;101996.66;6186009;23;20046;-85
2022/08/31 09:16:13;;;;;;;7.47;2.20;;;;;;;20.46;53.54;102011.34;6126544;23;20015;-85
2022/08/31 09:18:58;;;;;;;4.18;2.45;;;;;;;20.46;53.81;101995.66;6184395;23;20004;-85
2022/08/31 09:21:33;;;;;;;5.40;2.60;;;;;;;20.52;52.94;102002.06;6185589;23;20012;-85
2022/08/31 09:24:15;;;;;;;7.23;2.53;;;;;;;20.58;53.08;102002.97;6184577;23;20236;-85
2022/08/31 09:27:18;;;;;;;7.85;2.92;;;;;;;20.68;52.94;102009.50;6184996;23;20032;-86
2022/08/31 09:29:43;;;;;;;8.63;2.63;;;;;;;20.81;52.71;102002.75;6185471;23;20001;-85
2022/08/31 09:32:15;;;;;;;3.57;2.70;;;;;;;20.85;53.22;101994.81;6184842;23;20009;-85
2022/08/31 09:35:02;;;;;;;8.63;3.15;;;;;;;20.99;53.26;101993.34;6184978;23;20009;-85
2022/08/31 09:37:39;;;;;;;5.35;2.85;;;;;;;21.25;52.44;102010.16;6184918;23;20019;-85
2022/08/31 09:40:19;;;;;;;6.15;2.88;;;;;;;21.42;52.00;102000.97;6184048;23;20016;-85
2022/08/31 09:43:22;;;;;;;4.35;3.33;;;;;;;21.52;51.89;101988.09;6184726;23;20058;-85
2022/08/31 09:46:01;;;;;;;4.50;3.13;;;;;;;21.93;51.40;101998.69;6158345;23;20016;-85
2022/08/31 09:49:17;;;;;;;8.05;3.30;;;;;;;22.62;49.64;102009.94;6184048;23;20005;-85
2022/08/31 09:51:48;;;;;;;4.32;3.53;;;;;;;22.91;47.59;102008.44;6094550;23;20006;-86
2022/08/31 09:57:09;;;;;;;5.10;3.25;;;;;;;23.29;47.50;102011.88;6165273;23;20079;-85
2022/08/31 09:59:48;;;;;;;4.10;3.50;;;;;;;23.38;46.89;102006.63;6160224;23;20107;-85
2022/08/31 10:02:20;;;;;;;7.45;3.72;;;;;;;23.27;47.32;101997.47;6185912;23;20032;-85
2022/08/31 10:04:55;;;;;;;6.07;3.35;;;;;;;23.32;47.62;101988.34;6184300;23;20005;-85
2022/08/31 10:07:36;;;;;;;8.88;3.70;;;;;;;23.45;48.04;101998.88;6185281;23;20005;-85
2022/08/31 10:10:13;;;;;;;6.05;3.60;;;;;;;23.37;46.78;101985.59;6184297;23;20001;-86
2022/08/31 10:13:04;;;;;;;4.90;3.30;;;;;;;23.53;46.93;101991.16;6184058;23;20044;-86
2022/08/31 10:16:01;;;;;;;;;;;;;;;;;;;;;
2022/08/31 10:18:45;;;;;;;5.72;3.50;;;;;;;23.70;46.79;101988.94;6186436;23;20085;-86
2022/08/31 10:21:20;;;;;;;5.03;3.60;;;;;;;24.14;45.98;101998.66;6185722;23;20005;-88
2022/08/31 10:24:04;;;;;;;7.13;4.07;;;;;;;24.29;45.45;101979.22;6186607;23;20005;-86
2022/08/31 10:26:41;;;;;;;5.17;3.97;;;;;;;24.45;45.02;101990.28;6184547;23;20016;-86
2022/08/31 10:29:23;;;;;;;7.82;3.42;;;;;;;24.86;44.35;101987.34;6184300;23;20013;-86
2022/08/31 10:31:52;;;;;;;4.88;3.15;;;;;;;24.91;43.85;101975.41;6185190;23;20316;-86
2022/08/31 10:37:17;;;;;;;9.75;4.28;;;;;;;25.13;43.47;101981.38;6186171;23;20020;-85
2022/08/31 10:39:58;;;;;;;8.10;3.90;;;;;;;25.07;43.51;101984.47;6183935;23;20013;-86
2022/08/31 10:42:36;;;;;;;9.75;4.20;;;;;;;25.10;43.24;101978.34;6184927;23;20009;-86
2022/08/31 10:45:08;;;;;;;6.15;3.55;;;;;;;25.31;43.19;101967.97;6183871;23;20029;-86
2022/08/31 10:47:40;;;;;;;8.52;3.97;;;;;;;25.74;42.24;101973.75;6186503;23;20430;-86
2022/08/31 10:50:12;;;;;;;4.88;3.55;;;;;;;26.07;41.05;101960.97;6185871;23;20001;-87
2022/08/31 10:52:59;;;;;;;7.30;3.87;;;;;;;26.24;41.72;101968.00;6185847;23;20001;-86
2022/08/31 10:55:49;;;;;;;6.40;3.95;;;;;;;26.52;41.21;101971.84;6183562;23;20327;-86
2022/08/31 10:58:41;;;;;;;6.32;3.53;;;;;;;26.53;41.04;101975.47;6186096;23;20005;-86
2022/08/31 11:01:19;;;;;;;6.55;3.60;;;;;;;26.74;40.65;101964.94;6168112;23;20305;-86
2022/08/31 11:04:06;;;;;;;8.45;3.67;;;;;;;26.99;40.47;101972.13;6185642;23;20024;-86
2022/08/31 11:07:02;;;;;;;7.13;3.70;;;;;;;27.16;40.01;101971.59;6187124;23;20028;-86
2022/08/31 11:09:50;;;;;;;8.07;4.03;;;;;;;27.57;39.34;101965.41;6186634;23;20013;-86
2022/08/31 11:12:23;;;;;;;7.63;4.07;;;;;;;28.09;38.03;101965.34;6187689;23;20013;-86
2022/08/31 11:15:10;;;;;;;8.30;3.88;;;;;;;28.96;36.37;101971.13;6187484;23;20017;-86
2022/08/31 11:17:54;;;;;;;7.47;3.85;;;;;;;30.92;35.56;101968.81;6185847;23;20008;-86
2022/08/31 11:20:40;;;;;;;11.87;4.07;;;;;;;33.74;30.68;101963.31;6185577;23;20013;-86
2022/08/31 11:23:08;;;;;;;8.55;3.85;;;;;;;34.16;28.50;101975.59;6186197;23;20009;-86
2022/08/31 11:26:10;;;;;;;5.45;3.60;;;;;;;35.08;28.42;101967.66;6185587;23;20009;-87
2022/08/31 11:28:47;;;;;;;10.70;4.40;;;;;;;35.59;25.60;101959.47;6185830;23;20083;-86
2022/08/31 11:31:24;;;;;;;5.18;3.88;;;;;;;35.67;25.35;101954.88;6185356;23;20029;-86
2022/08/31 11:34:16;;;;;;;5.20;3.90;;;;;;;35.46;27.03;101953.09;6186039;23;20016;-86
2022/08/31 11:37:03;;;;;;;6.93;3.58;;;;;;;37.29;25.23;101950.25;6185864;23;20037;-86
2022/08/31 11:39:35;;;;;;;4.13;3.72;;;;;;;38.40;22.67;101940.09;6185066;23;20108;-86
2022/08/31 11:42:46;;;;;;;6.00;3.72;;;;;;;37.93;23.68;101935.69;6186968;23;20081;-86
2022/08/31 11:45:39;;;;;;;8.52;3.95;;;;;;;36.35;25.99;101938.88;6138345;23;20051;-86
2022/08/31 11:48:11;;;;;;;10.00;4.03;;;;;;;35.31;25.20;101940.56;6185801;23;20001;-86
2022/08/31 11:50:42;;;;;;;8.23;3.75;;;;;;;35.44;25.35;101929.25;6185186;23;20009;-85
2022/08/31 11:53:33;;;;;;;7.65;3.95;;;;;;;37.67;24.12;101927.91;6185082;23;20019;-85
2022/08/31 11:56:03;;;;;;;8.43;4.38;;;;;;;38.28;21.99;101922.50;6188716;23;20439;-87
2022/08/31 11:59:16;;;;;;;8.00;4.40;;;;;;;37.96;23.55;101912.28;6185684;23;20055;-86